Terminal Aerodrome Forecast
Issued by NWS Buffalo, NY

Home | Current Version | Previous Version | Text Only | Print | Product List | Glossary On
Versions: 1 2 3 4 5 6 7 8 9 10 11 12 13 14 15 16 17 18 19 20 21 22 23 24 25 26 27 28
000
FTUS41 KBUF 271700
TAFBUF
TAF
KBUF 271727Z 2718/2818 22013G20KT P6SM BKN050 BKN100
     FM280100 22017G29KT P6SM OVC040
     FM280500 23017G24KT 6SM -RA OVC025
     FM281000 27012KT P6SM VCSH OVC090
     FM281200 29011KT P6SM BKN200=

USA.gov is the U.S. government's official web portal to all federal, state and local government web resources and services.